createdAt,value
2023-03-11T00:00:55.353Z,73.26
2023-03-11T00:03:24.903Z,73.24
2023-03-11T00:05:52.982Z,73.30
2023-03-11T00:08:22.653Z,73.13
2023-03-11T00:10:53.260Z,72.92
2023-03-11T00:13:19.621Z,73.18
2023-03-11T00:15:48.693Z,73.06
2023-03-11T00:18:15.758Z,73.10
2023-03-11T00:20:44.435Z,73.26
2023-03-11T00:23:13.216Z,73.17
2023-03-11T00:25:40.477Z,73.18
2023-03-11T00:28:07.468Z,73.24
2023-03-11T00:30:34.109Z,73.13
2023-03-11T00:33:00.724Z,73.21
2023-03-11T00:35:30.708Z,73.07
2023-03-11T00:37:59.716Z,73.16
2023-03-11T00:40:28.902Z,73.04
2023-03-11T00:42:55.445Z,73.22
2023-03-11T00:45:22.484Z,73.12
2023-03-11T00:47:48.938Z,72.86
2023-03-11T00:50:23.470Z,72.75
2023-03-11T00:52:51.422Z,72.67
2023-03-11T00:55:24.615Z,72.64
2023-03-11T00:57:55.367Z,72.42
2023-03-11T01:00:23.754Z,72.53
2023-03-11T01:02:51.545Z,72.55
2023-03-11T01:05:23.362Z,72.43
2023-03-11T01:07:49.960Z,72.43
2023-03-11T01:10:17.682Z,72.42
2023-03-11T01:12:44.205Z,72.46
2023-03-11T01:15:18.787Z,72.47
2023-03-11T01:17:45.400Z,72.69
2023-03-11T01:20:12.920Z,72.54
2023-03-11T01:22:39.365Z,72.74
2023-03-11T01:25:06.187Z,72.79
2023-03-11T01:27:32.582Z,72.81
2023-03-11T01:29:58.960Z,72.82
2023-03-11T01:32:25.510Z,72.95
2023-03-11T01:34:51.939Z,72.90
2023-03-11T01:37:20.110Z,72.94
2023-03-11T01:39:46.531Z,72.99
2023-03-11T01:42:13.066Z,73.38
2023-03-11T01:44:39.426Z,73.27
2023-03-11T01:47:05.732Z,73.16
2023-03-11T01:49:32.163Z,73.11
2023-03-11T01:52:03.741Z,72.98
2023-03-11T01:54:33.468Z,73.03
2023-03-11T01:57:05.095Z,73.38
2023-03-11T01:59:39.436Z,72.76
2023-03-11T02:02:17.446Z,73.15
2023-03-11T02:04:44.879Z,72.75
2023-03-11T02:07:11.717Z,72.82
2023-03-11T02:09:38.508Z,72.85
2023-03-11T02:12:06.361Z,72.76
2023-03-11T02:14:33.288Z,72.68
2023-03-11T02:17:00.562Z,72.69
2023-03-11T02:19:54.020Z,72.70
2023-03-11T02:22:20.941Z,72.67
2023-03-11T02:25:04.718Z,72.86
2023-03-11T02:27:36.378Z,72.38
2023-03-11T02:30:04.410Z,72.73
2023-03-11T02:32:31.306Z,72.72
2023-03-11T02:34:57.740Z,72.76
2023-03-11T02:37:24.159Z,72.70
2023-03-11T02:39:52.942Z,72.63
2023-03-11T02:42:28.803Z,72.49
2023-03-11T02:45:09.163Z,72.38
2023-03-11T02:47:37.678Z,72.41
2023-03-11T02:50:05.699Z,72.43
2023-03-11T02:52:34.703Z,72.13
2023-03-11T02:55:01.768Z,72.34
2023-03-11T02:57:28.367Z,71.96
2023-03-11T02:59:54.812Z,71.90
2023-03-11T03:02:21.235Z,71.70
2023-03-11T03:04:47.584Z,71.61
2023-03-11T03:07:14.061Z,71.43
2023-03-11T03:09:40.552Z,71.56
2023-03-11T03:12:07.377Z,71.50
2023-03-11T03:14:33.829Z,71.18
2023-03-11T03:17:00.357Z,71.39
2023-03-11T03:19:26.785Z,71.33
2023-03-11T03:21:53.236Z,71.56
2023-03-11T03:24:19.565Z,71.47
2023-03-11T03:26:46.098Z,71.66
2023-03-11T03:29:12.625Z,71.76
2023-03-11T03:31:39.116Z,72.00
2023-03-11T03:34:05.591Z,72.09
2023-03-11T03:36:32.035Z,72.15
2023-03-11T03:38:59.501Z,72.49
2023-03-11T03:41:25.836Z,72.10
2023-03-11T03:43:53.477Z,72.49
2023-03-11T03:46:20.779Z,72.17
2023-03-11T03:48:47.234Z,72.00
2023-03-11T03:51:14.383Z,71.92
2023-03-11T03:53:42.294Z,72.19
2023-03-11T03:56:11.162Z,72.38
2023-03-11T03:58:37.789Z,72.35
2023-03-11T04:01:05.441Z,72.60
2023-03-11T04:03:32.054Z,72.62
2023-03-11T04:06:19.868Z,72.66
2023-03-11T04:08:46.314Z,72.66
2023-03-11T04:11:13.676Z,72.64
2023-03-11T04:13:40.448Z,72.45
2023-03-11T04:16:07.880Z,72.52
2023-03-11T04:18:34.607Z,72.77
2023-03-11T04:21:05.467Z,72.76
2023-03-11T04:23:31.936Z,73.01
2023-03-11T04:25:58.353Z,72.71
2023-03-11T04:28:24.728Z,72.29
2023-03-11T04:30:51.080Z,72.56
2023-03-11T04:33:17.427Z,72.59
2023-03-11T04:35:43.795Z,72.62
2023-03-11T04:38:10.211Z,72.39
2023-03-11T04:40:39.928Z,72.15
2023-03-11T04:43:06.258Z,71.72
2023-03-11T04:45:33.121Z,71.82
2023-03-11T04:47:59.437Z,71.76
2023-03-11T04:50:25.755Z,71.48
2023-03-11T04:52:52.092Z,71.66
2023-03-11T04:55:18.413Z,71.53
2023-03-11T04:57:44.737Z,71.26
2023-03-11T05:00:12.640Z,71.10
2023-03-11T05:02:39.874Z,70.67
2023-03-11T05:05:08.205Z,70.53
2023-03-11T05:07:34.755Z,70.17
2023-03-11T05:10:01.078Z,69.91
2023-03-11T05:12:27.498Z,69.65
2023-03-11T05:14:53.829Z,69.24
2023-03-11T05:17:20.231Z,69.04
2023-03-11T05:19:46.766Z,69.01
2023-03-11T05:22:13.101Z,68.75
2023-03-11T05:24:39.606Z,68.89
2023-03-11T05:27:06.016Z,68.56
2023-03-11T05:29:32.517Z,68.62
2023-03-11T05:31:58.986Z,68.58
2023-03-11T05:34:25.569Z,68.77
2023-03-11T05:36:51.896Z,68.82
2023-03-11T05:39:18.247Z,68.99
2023-03-11T05:41:44.680Z,68.78
2023-03-11T05:44:11.091Z,69.31
2023-03-11T05:46:37.632Z,69.43
2023-03-11T05:49:04.093Z,69.56
2023-03-11T05:51:30.461Z,69.46
2023-03-11T05:53:56.907Z,69.37
2023-03-11T05:56:23.388Z,69.14
2023-03-11T05:58:50.396Z,68.85
2023-03-11T06:01:19.369Z,69.54
2023-03-11T06:03:45.808Z,69.60
2023-03-11T06:06:13.264Z,69.72
2023-03-11T06:08:39.624Z,69.62
2023-03-11T06:11:10.884Z,69.49
2023-03-11T06:13:37.771Z,69.30
2023-03-11T06:16:04.899Z,69.87
2023-03-11T06:18:31.392Z,69.68
2023-03-11T06:20:59.544Z,69.79
2023-03-11T06:23:26.337Z,69.57
2023-03-11T06:25:56.358Z,69.83
2023-03-11T06:28:22.709Z,70.38
2023-03-11T06:30:49.152Z,70.50
2023-03-11T06:33:15.552Z,70.47
2023-03-11T06:35:42.085Z,70.43
2023-03-11T06:38:08.797Z,70.64
2023-03-11T06:40:37.904Z,70.80
2023-03-11T06:43:04.285Z,71.09
2023-03-11T06:45:30.685Z,71.08
2023-03-11T06:47:57.065Z,71.13
2023-03-11T06:50:24.008Z,71.30
2023-03-11T06:52:50.380Z,71.28
2023-03-11T06:55:16.750Z,71.35
2023-03-11T06:57:45.557Z,71.84
2023-03-11T07:00:12.988Z,71.75
2023-03-11T07:02:39.338Z,72.05
2023-03-11T07:05:06.185Z,72.15
2023-03-11T07:07:32.705Z,72.23
2023-03-11T07:09:59.061Z,72.32
2023-03-11T07:12:25.429Z,72.36
2023-03-11T07:14:59.195Z,72.49
2023-03-11T07:17:26.528Z,72.47
2023-03-11T07:19:53.816Z,72.43
2023-03-11T07:22:20.611Z,72.54
2023-03-11T07:24:48.891Z,72.82
2023-03-11T07:27:15.573Z,72.74
2023-03-11T07:29:42.076Z,72.56
2023-03-11T07:32:09.262Z,72.87
2023-03-11T07:34:35.781Z,72.84
2023-03-11T07:37:02.224Z,73.04
2023-03-11T07:39:28.570Z,72.83
2023-03-11T07:41:54.889Z,72.82
2023-03-11T07:44:21.228Z,73.13
2023-03-11T07:46:47.948Z,72.97
2023-03-11T07:49:14.300Z,72.69
2023-03-11T07:51:42.386Z,72.83
2023-03-11T07:54:11.310Z,72.64
2023-03-11T07:56:38.231Z,72.68
2023-03-11T07:59:05.417Z,72.39
2023-03-11T08:01:36.364Z,72.45
2023-03-11T08:04:05.323Z,72.40
2023-03-11T08:06:33.529Z,72.59
2023-03-11T08:09:01.311Z,72.59
2023-03-11T08:11:28.249Z,72.58
2023-03-11T08:13:54.677Z,72.44
2023-03-11T08:16:22.182Z,72.29
2023-03-11T08:18:50.077Z,72.33
2023-03-11T08:21:19.638Z,72.30
2023-03-11T08:23:45.981Z,72.27
2023-03-11T08:26:14.896Z,72.41
2023-03-11T08:28:41.509Z,72.38
2023-03-11T08:31:14.766Z,71.98
2023-03-11T08:33:42.512Z,72.41
2023-03-11T08:36:09.497Z,72.39
2023-03-11T08:38:36.066Z,72.32
2023-03-11T08:41:02.508Z,72.01
2023-03-11T08:43:28.965Z,72.15
2023-03-11T08:45:55.477Z,72.02
2023-03-11T08:48:23.480Z,72.25
2023-03-11T08:50:54.289Z,72.19
2023-03-11T08:53:22.505Z,72.19
2023-03-11T08:55:50.201Z,71.96
2023-03-11T08:58:16.765Z,71.96
2023-03-11T09:00:43.294Z,71.97
2023-03-11T09:03:10.039Z,71.78
2023-03-11T09:05:36.822Z,71.72
2023-03-11T09:08:05.437Z,71.53
2023-03-11T09:10:32.535Z,71.58
2023-03-11T09:12:58.880Z,71.66
2023-03-11T09:15:25.464Z,71.73
2023-03-11T09:17:52.892Z,71.60
2023-03-11T09:20:19.421Z,71.48
2023-03-11T09:22:45.927Z,71.25
2023-03-11T09:25:13.056Z,71.21
2023-03-11T09:27:39.465Z,71.06
2023-03-11T09:30:06.448Z,70.95
2023-03-11T09:32:32.820Z,71.22
2023-03-11T09:35:00.158Z,71.28
2023-03-11T09:37:27.110Z,71.43
2023-03-11T09:39:53.424Z,70.97
2023-03-11T09:42:29.371Z,70.96
2023-03-11T09:45:19.253Z,71.09
2023-03-11T09:48:26.952Z,71.17
2023-03-11T09:51:00.750Z,71.22
2023-03-11T09:53:40.533Z,70.90
2023-03-11T09:56:14.931Z,71.39
2023-03-11T09:58:48.102Z,70.85
2023-03-11T10:01:27.714Z,70.95
2023-03-11T10:04:23.866Z,70.84
2023-03-11T10:06:50.390Z,70.82
2023-03-11T10:09:34.840Z,70.94
2023-03-11T10:12:17.709Z,70.72
2023-03-11T10:15:02.867Z,71.06
2023-03-11T10:18:18.435Z,70.96
2023-03-11T10:21:15.283Z,70.85
2023-03-11T10:24:24.888Z,71.32
2023-03-11T10:27:07.058Z,70.87
2023-03-11T10:29:48.194Z,71.24
2023-03-11T10:32:24.311Z,70.83
2023-03-11T10:34:59.065Z,70.90
2023-03-11T10:37:48.406Z,71.21
2023-03-11T10:40:25.902Z,71.18
2023-03-11T10:42:55.110Z,71.27
2023-03-11T10:45:23.371Z,70.96
2023-03-11T10:47:50.042Z,71.07
2023-03-11T10:50:18.438Z,70.61
2023-03-11T10:53:09.187Z,70.68
2023-03-11T10:55:44.471Z,70.66
2023-03-11T10:58:18.058Z,70.45
2023-03-11T11:00:44.953Z,70.34
2023-03-11T11:03:21.731Z,70.82
2023-03-11T11:05:58.951Z,70.65
2023-03-11T11:08:25.488Z,70.63
2023-03-11T11:10:55.020Z,70.05
2023-03-11T11:13:24.098Z,69.94
2023-03-11T11:16:20.836Z,70.09
2023-03-11T11:18:51.441Z,69.99
2023-03-11T11:21:31.020Z,70.42
2023-03-11T11:24:16.522Z,70.59
2023-03-11T11:26:43.313Z,69.81
2023-03-11T11:29:09.665Z,69.86
2023-03-11T11:31:38.067Z,69.50
2023-03-11T11:34:07.038Z,69.58
2023-03-11T11:36:36.617Z,69.36
2023-03-11T11:39:11.436Z,69.07
2023-03-11T11:41:38.112Z,69.73
2023-03-11T11:44:06.758Z,69.74
2023-03-11T11:46:53.302Z,70.06
2023-03-11T11:49:24.099Z,69.64
2023-03-11T11:51:57.834Z,69.90
2023-03-11T11:54:34.245Z,69.70
2023-03-11T11:57:09.191Z,69.53
2023-03-11T11:59:35.732Z,69.45
2023-03-11T12:02:56.465Z,70.06
2023-03-11T12:05:35.532Z,69.24
2023-03-11T12:08:20.038Z,68.82
2023-03-11T12:11:06.221Z,69.08
2023-03-11T12:14:10.920Z,69.34
2023-03-11T12:17:08.331Z,69.15
2023-03-11T12:19:57.228Z,69.44
2023-03-11T12:22:45.345Z,69.06
2023-03-11T12:25:39.409Z,69.37
2023-03-11T12:28:27.142Z,69.44
2023-03-11T12:31:00.485Z,68.68
2023-03-11T12:33:31.371Z,68.88
2023-03-11T12:35:59.354Z,68.74
2023-03-11T12:38:38.640Z,69.08
2023-03-11T12:41:14.067Z,68.68
2023-03-11T12:43:40.332Z,68.27
2023-03-11T12:46:08.975Z,68.05
2023-03-11T12:48:43.471Z,68.81
2023-03-11T12:51:34.126Z,68.07
2023-03-11T12:54:20.372Z,67.35
2023-03-11T12:56:52.848Z,67.55
2023-03-11T12:59:48.297Z,67.46
2023-03-11T13:02:48.331Z,67.19
2023-03-11T13:05:39.386Z,67.05
2023-03-11T13:08:23.690Z,67.00
2023-03-11T13:10:52.504Z,66.47
2023-03-11T13:13:40.453Z,67.17
2023-03-11T13:16:12.864Z,67.12
2023-03-11T13:18:42.103Z,67.16
2023-03-11T13:21:27.143Z,66.87
2023-03-11T13:24:19.444Z,66.79
2023-03-11T13:26:56.813Z,67.69
2023-03-11T13:29:41.463Z,68.18
2023-03-11T13:32:45.578Z,67.87
2023-03-11T13:35:40.876Z,67.50
2023-03-11T13:38:23.438Z,67.81
2023-03-11T13:40:52.443Z,66.77
2023-03-11T13:43:21.319Z,66.45
2023-03-11T13:45:53.631Z,66.25
2023-03-11T13:48:29.527Z,65.42
2023-03-11T13:50:59.370Z,65.65
2023-03-11T13:53:31.960Z,65.59
2023-03-11T13:55:58.314Z,64.78
2023-03-11T13:58:27.686Z,65.11
2023-03-11T14:00:59.990Z,65.25
2023-03-11T14:03:30.114Z,64.79
2023-03-11T14:06:01.270Z,65.13
2023-03-11T14:08:35.804Z,65.07
2023-03-11T14:11:14.667Z,64.64
2023-03-11T14:13:46.852Z,63.57
2023-03-11T14:16:33.583Z,63.51
2023-03-11T14:19:08.541Z,63.10
2023-03-11T14:21:35.465Z,61.79
2023-03-11T14:24:02.910Z,61.46
2023-03-11T14:26:35.004Z,62.06
2023-03-11T14:29:08.805Z,61.80
2023-03-11T14:31:37.503Z,61.51
2023-03-11T14:34:06.696Z,61.91
2023-03-11T14:36:49.532Z,61.71
2023-03-11T14:39:32.071Z,62.02
2023-03-11T14:42:19.189Z,61.63
2023-03-11T14:45:02.538Z,61.47
2023-03-11T14:47:41.708Z,61.93
2023-03-11T14:50:25.778Z,62.50
2023-03-11T14:52:55.436Z,62.27
2023-03-11T14:55:50.966Z,62.28
2023-03-11T14:58:40.758Z,62.11
2023-03-11T15:01:31.701Z,62.18
2023-03-11T15:04:01.565Z,62.27
2023-03-11T15:06:29.579Z,62.16
2023-03-11T15:09:01.206Z,61.70
2023-03-11T15:11:28.567Z,61.02
2023-03-11T15:14:16.789Z,61.41
2023-03-11T15:16:43.279Z,60.89
2023-03-11T15:19:23.061Z,61.06
2023-03-11T15:21:54.512Z,61.15
2023-03-11T15:24:29.833Z,61.04
2023-03-11T15:27:01.374Z,60.84
2023-03-11T15:29:29.528Z,60.45
2023-03-11T15:31:57.147Z,60.17
2023-03-11T15:34:28.042Z,61.05
2023-03-11T15:37:19.587Z,60.97
2023-03-11T15:39:48.111Z,60.90
2023-03-11T15:42:21.913Z,60.29
2023-03-11T15:44:48.214Z,59.88
2023-03-11T15:47:20.368Z,60.02
2023-03-11T15:49:47.426Z,59.49
2023-03-11T15:52:14.529Z,59.64
2023-03-11T15:54:41.173Z,59.28
2023-03-11T15:57:12.406Z,59.16
2023-03-11T15:59:41.089Z,59.11
2023-03-11T16:02:26.213Z,58.98
2023-03-11T16:04:53.327Z,59.05
2023-03-11T16:07:32.826Z,59.02
2023-03-11T16:10:05.628Z,58.88
2023-03-11T16:12:32.127Z,58.52
2023-03-11T16:14:58.608Z,58.61
2023-03-11T16:17:25.031Z,58.75
2023-03-11T16:19:51.459Z,59.23
2023-03-11T16:22:28.192Z,59.28
2023-03-11T16:24:54.716Z,59.04
2023-03-11T16:27:21.048Z,59.18
2023-03-11T16:29:47.843Z,58.95
2023-03-11T16:32:14.753Z,59.60
2023-03-11T16:34:41.072Z,59.69
2023-03-11T16:37:07.956Z,58.78
2023-03-11T16:39:34.765Z,59.46
2023-03-11T16:42:01.374Z,59.63
2023-03-11T16:44:27.781Z,60.02
2023-03-11T16:46:54.185Z,60.04
2023-03-11T16:49:20.594Z,60.17
2023-03-11T16:51:46.922Z,59.81
2023-03-11T16:54:13.378Z,60.44
2023-03-11T16:56:41.727Z,61.00
2023-03-11T16:59:08.259Z,61.23
2023-03-11T17:01:38.453Z,61.32
2023-03-11T17:04:06.988Z,60.69
2023-03-11T17:06:33.666Z,60.87
2023-03-11T17:09:00.378Z,60.47
2023-03-11T17:11:29.392Z,60.33
2023-03-11T17:14:03.257Z,60.23
2023-03-11T17:16:40.277Z,59.98
2023-03-11T17:19:06.731Z,61.44
2023-03-11T17:21:33.073Z,61.40
2023-03-11T17:23:59.411Z,60.92
2023-03-11T17:26:27.514Z,61.93
2023-03-11T17:28:54.172Z,61.27
2023-03-11T17:31:20.596Z,61.56
2023-03-11T17:33:47.077Z,61.74
2023-03-11T17:36:18.779Z,61.57
2023-03-11T17:38:46.885Z,61.94
2023-03-11T17:41:16.004Z,62.62
2023-03-11T17:43:43.217Z,62.61
2023-03-11T17:46:14.189Z,62.46
2023-03-11T17:48:41.480Z,63.00
2023-03-11T17:51:13.028Z,63.17
2023-03-11T17:53:40.570Z,63.17
2023-03-11T17:56:08.344Z,63.63
2023-03-11T17:58:35.619Z,64.01
2023-03-11T18:01:07.609Z,64.45
2023-03-11T18:03:34.695Z,63.77
2023-03-11T18:06:04.369Z,64.09
2023-03-11T18:08:32.793Z,64.45
2023-03-11T18:11:08.538Z,64.11
2023-03-11T18:13:35.833Z,64.38
2023-03-11T18:16:04.749Z,64.59
2023-03-11T18:18:31.993Z,64.93
2023-03-11T18:21:10.606Z,64.75
2023-03-11T18:23:38.092Z,65.14
2023-03-11T18:26:07.498Z,65.03
2023-03-11T18:28:35.213Z,64.59
2023-03-11T18:31:15.052Z,64.51
2023-03-11T18:33:43.127Z,64.59
2023-03-11T18:36:13.548Z,64.41
2023-03-11T18:38:39.920Z,64.74
2023-03-11T18:41:06.557Z,64.45
2023-03-11T18:43:32.914Z,64.76
2023-03-11T18:46:01.259Z,64.61
2023-03-11T18:48:27.690Z,65.08
2023-03-11T18:50:55.379Z,65.06
2023-03-11T18:53:24.748Z,65.39
2023-03-11T18:56:13.023Z,65.43
2023-03-11T18:58:39.633Z,65.18
2023-03-11T19:01:08.504Z,65.39
2023-03-11T19:03:35.231Z,65.50
2023-03-11T19:06:01.972Z,65.60
2023-03-11T19:08:28.701Z,65.56
2023-03-11T19:10:55.441Z,65.51
2023-03-11T19:13:22.338Z,65.48
2023-03-11T19:15:48.861Z,65.69
2023-03-11T19:18:15.618Z,65.26
2023-03-11T19:20:42.246Z,65.55
2023-03-11T19:23:09.154Z,65.93
2023-03-11T19:25:35.883Z,65.99
2023-03-11T19:28:02.315Z,65.97
2023-03-11T19:30:28.722Z,66.40
2023-03-11T19:32:55.383Z,66.34
2023-03-11T19:35:23.674Z,66.32
2023-03-11T19:37:50.436Z,66.20
2023-03-11T19:40:17.810Z,66.28
2023-03-11T19:42:44.324Z,65.95
2023-03-11T19:45:11.387Z,65.92
2023-03-11T19:47:38.540Z,65.94
2023-03-11T19:50:05.781Z,66.48
2023-03-11T19:52:34.637Z,66.04
2023-03-11T19:55:01.120Z,66.39
2023-03-11T19:57:27.525Z,66.19
2023-03-11T19:59:55.468Z,66.50
2023-03-11T20:02:21.995Z,66.42
2023-03-11T20:04:48.674Z,66.23
2023-03-11T20:07:15.318Z,66.45
2023-03-11T20:09:41.685Z,66.39
2023-03-11T20:12:08.218Z,66.03
2023-03-11T20:14:34.640Z,66.23
2023-03-11T20:17:01.046Z,65.85
2023-03-11T20:19:27.597Z,66.21
2023-03-11T20:21:54.117Z,66.41
2023-03-11T20:24:20.504Z,66.23
2023-03-11T20:26:48.817Z,66.35
2023-03-11T20:29:17.049Z,66.27
2023-03-11T20:31:44.400Z,66.53
2023-03-11T20:34:12.200Z,66.74
2023-03-11T20:36:39.879Z,66.95
2023-03-11T20:39:09.900Z,66.81
2023-03-11T20:41:38.951Z,66.87
2023-03-11T20:44:07.210Z,67.09
2023-03-11T20:46:33.995Z,66.48
2023-03-11T20:49:01.517Z,66.53
2023-03-11T20:51:28.195Z,66.48
2023-03-11T20:53:54.617Z,66.62
2023-03-11T20:56:24.374Z,66.55
2023-03-11T20:58:52.124Z,66.59
2023-03-11T21:01:31.525Z,66.95
2023-03-11T21:04:01.227Z,66.98
2023-03-11T21:06:31.210Z,66.55
2023-03-11T21:08:59.746Z,66.73
2023-03-11T21:11:26.965Z,66.57
2023-03-11T21:13:54.929Z,66.82
2023-03-11T21:16:22.210Z,66.13
2023-03-11T21:18:49.616Z,66.17
2023-03-11T21:21:17.694Z,66.73
2023-03-11T21:23:44.718Z,66.69
2023-03-11T21:26:13.626Z,66.89
2023-03-11T21:28:40.212Z,66.64
2023-03-11T21:31:12.106Z,66.55
2023-03-11T21:33:40.571Z,66.80
2023-03-11T21:36:08.697Z,66.52
2023-03-11T21:38:35.446Z,66.98
2023-03-11T21:41:11.311Z,66.74
2023-03-11T21:43:38.704Z,66.80
2023-03-11T21:46:06.509Z,66.47
2023-03-11T21:48:33.678Z,66.72
2023-03-11T21:51:00.565Z,67.03
2023-03-11T21:53:27.300Z,66.81
2023-03-11T21:55:54.001Z,66.69
2023-03-11T21:58:20.751Z,66.64
2023-03-11T22:00:50.686Z,66.63
2023-03-11T22:03:20.769Z,66.72
2023-03-11T22:05:47.857Z,66.68
2023-03-11T22:08:17.659Z,66.62
2023-03-11T22:10:44.513Z,66.64
2023-03-11T22:13:10.924Z,66.40
2023-03-11T22:15:37.889Z,66.15
2023-03-11T22:18:04.650Z,66.38
2023-03-11T22:20:31.216Z,66.48
2023-03-11T22:22:57.662Z,66.57
2023-03-11T22:25:24.073Z,66.44
2023-03-11T22:27:50.427Z,66.89
2023-03-11T22:30:17.062Z,66.68
2023-03-11T22:32:43.581Z,66.50
2023-03-11T22:35:10.081Z,66.83
2023-03-11T22:37:36.485Z,66.74
2023-03-11T22:40:04.586Z,66.68
2023-03-11T22:42:30.924Z,66.73
2023-03-11T22:44:57.309Z,66.83
2023-03-11T22:47:23.648Z,66.57
2023-03-11T22:49:50.002Z,66.92
2023-03-11T22:52:16.971Z,66.80
2023-03-11T22:54:43.777Z,66.57
2023-03-11T22:57:10.216Z,66.71
2023-03-11T22:59:36.747Z,66.77
2023-03-11T23:02:03.165Z,66.98
2023-03-11T23:04:29.592Z,67.26
2023-03-11T23:06:56.063Z,67.59
2023-03-11T23:09:23.405Z,68.00
2023-03-11T23:11:50.858Z,68.28
2023-03-11T23:14:18.101Z,68.17
2023-03-11T23:16:45.219Z,68.58
2023-03-11T23:19:12.497Z,68.82
2023-03-11T23:21:39.305Z,68.43
2023-03-11T23:24:08.654Z,68.33
2023-03-11T23:26:35.925Z,68.46
2023-03-11T23:29:03.955Z,68.47
2023-03-11T23:31:30.944Z,68.67
2023-03-11T23:33:57.661Z,68.57
2023-03-11T23:36:27.496Z,68.69
2023-03-11T23:38:53.904Z,68.15
2023-03-11T23:41:23.545Z,68.27
2023-03-11T23:43:50.792Z,68.49
2023-03-11T23:46:17.232Z,68.69
2023-03-11T23:48:43.585Z,68.36
2023-03-11T23:51:10.072Z,68.38
2023-03-11T23:53:38.111Z,68.29
2023-03-11T23:56:13.708Z,68.21
2023-03-11T23:58:40.154Z,68.26
